createdAt,value
2017-11-22T00:01:29.074Z,43.30
2017-11-22T00:03:58.265Z,43.20
2017-11-22T00:06:27.265Z,43.20
2017-11-22T00:08:56.764Z,46.10
2017-11-22T00:11:26.162Z,48.40
2017-11-22T00:13:55.062Z,50.40
2017-11-22T00:16:24.263Z,51.80
2017-11-22T00:18:53.461Z,52.70
2017-11-22T00:21:22.266Z,52.80
2017-11-22T00:23:52.460Z,48.80
2017-11-22T00:26:21.596Z,48.80
2017-11-22T00:28:50.454Z,47.60
2017-11-22T00:31:23.211Z,46.60
2017-11-22T00:33:51.919Z,46.00
2017-11-22T00:36:21.701Z,45.60
2017-11-22T00:38:51.142Z,44.80
2017-11-22T00:41:24.342Z,44.00
2017-11-22T00:43:55.748Z,44.00
2017-11-22T00:46:27.563Z,43.70
2017-11-22T00:48:55.771Z,44.30
2017-11-22T00:51:23.975Z,43.60
2017-11-22T00:53:52.028Z,46.40
2017-11-22T00:56:19.885Z,49.00
2017-11-22T00:58:48.229Z,50.80
2017-11-22T01:01:17.938Z,47.60
2017-11-22T01:03:46.355Z,47.60
2017-11-22T01:06:15.455Z,46.50
2017-11-22T01:08:44.755Z,45.60
2017-11-22T01:11:13.957Z,45.00
2017-11-22T01:13:42.753Z,44.40
2017-11-22T01:16:12.053Z,44.10
2017-11-22T01:18:40.954Z,43.60
2017-11-22T01:21:09.852Z,43.50
2017-11-22T01:23:39.152Z,43.40
2017-11-22T01:26:07.359Z,43.40
2017-11-22T01:28:35.639Z,43.20
2017-11-22T01:31:04.078Z,44.80
2017-11-22T01:33:32.891Z,47.50
2017-11-22T01:36:01.275Z,49.90
2017-11-22T01:38:30.566Z,49.40
2017-11-22T01:40:59.666Z,47.50
2017-11-22T01:43:28.633Z,46.50
2017-11-22T01:45:57.632Z,45.60
2017-11-22T01:48:26.180Z,44.90
2017-11-22T01:50:55.454Z,44.50
2017-11-22T01:53:25.497Z,43.90
2017-11-22T01:55:54.699Z,43.40
2017-11-22T01:58:23.885Z,43.10
2017-11-22T02:00:54.639Z,42.90
2017-11-22T02:05:51.892Z,42.70
2017-11-22T02:08:21.540Z,43.50
2017-11-22T02:10:49.867Z,46.40
2017-11-22T02:13:18.314Z,48.90
2017-11-22T02:15:46.694Z,49.80
2017-11-22T02:18:15.339Z,47.50
2017-11-22T02:20:45.521Z,45.60
2017-11-22T02:23:14.718Z,45.50
2017-11-22T02:25:44.118Z,44.80
2017-11-22T02:28:17.022Z,44.50
2017-11-22T02:30:48.824Z,44.00
2017-11-22T02:33:21.419Z,43.30
2017-11-22T02:35:52.921Z,43.30
2017-11-22T02:38:21.436Z,43.10
2017-11-22T02:40:49.634Z,43.00
2017-11-22T02:43:18.140Z,42.80
2017-11-22T02:45:46.342Z,43.00
2017-11-22T02:48:14.273Z,46.20
2017-11-22T02:50:44.715Z,50.20
2017-11-22T02:53:14.527Z,50.20
2017-11-22T02:55:43.913Z,48.10
2017-11-22T02:58:13.465Z,46.80
2017-11-22T03:00:43.314Z,45.70
2017-11-22T03:03:13.523Z,44.90
2017-11-22T03:05:43.318Z,44.50
2017-11-22T03:08:14.844Z,43.50
2017-11-22T03:10:44.745Z,43.20
2017-11-22T03:13:13.847Z,43.10
2017-11-22T03:15:42.849Z,43.00
2017-11-22T03:18:12.241Z,43.20
2017-11-22T03:20:41.041Z,42.50
2017-11-22T03:23:10.265Z,42.40
2017-11-22T03:25:38.842Z,45.10
2017-11-22T03:28:07.272Z,47.80
2017-11-22T03:30:35.542Z,49.80
2017-11-22T03:33:04.610Z,51.40
2017-11-22T03:35:34.444Z,52.40
2017-11-22T03:38:03.351Z,50.90
2017-11-22T03:40:32.423Z,50.20
2017-11-22T03:43:00.737Z,48.60
2017-11-22T03:45:29.622Z,47.30
2017-11-22T03:47:57.872Z,46.40
2017-11-22T03:50:30.832Z,45.60
2017-11-22T03:53:04.336Z,44.80
2017-11-22T03:55:33.748Z,44.30
2017-11-22T03:58:06.407Z,44.00
2017-11-22T04:00:36.006Z,43.60
2017-11-22T04:03:10.207Z,43.20
2017-11-22T04:05:43.805Z,43.20
2017-11-22T04:08:17.706Z,43.10
2017-11-22T04:10:48.416Z,45.90
2017-11-22T04:13:18.512Z,48.80
2017-11-22T04:15:48.518Z,50.80
2017-11-22T04:18:20.553Z,49.00
2017-11-22T04:20:53.965Z,47.50
2017-11-22T04:23:22.644Z,46.20
2017-11-22T04:25:53.193Z,44.60
2017-11-22T04:28:23.992Z,44.60
2017-11-22T04:30:53.291Z,44.30
2017-11-22T04:33:22.543Z,43.80
2017-11-22T04:35:52.245Z,43.40
2017-11-22T04:38:21.443Z,43.10
2017-11-22T04:40:51.144Z,42.90
2017-11-22T04:43:20.442Z,42.80
2017-11-22T04:45:49.984Z,42.80
2017-11-22T04:48:18.712Z,45.10
2017-11-22T04:50:47.486Z,47.80
2017-11-22T04:53:16.440Z,49.90
2017-11-22T04:55:44.804Z,48.80
2017-11-22T04:58:16.439Z,47.30
2017-11-22T05:00:47.383Z,46.20
2017-11-22T05:03:20.060Z,44.70
2017-11-22T05:05:53.234Z,44.60
2017-11-22T05:08:21.965Z,44.10
2017-11-22T05:10:51.065Z,43.70
2017-11-22T05:13:20.212Z,43.30
2017-11-22T05:15:49.972Z,43.00
2017-11-22T05:18:18.965Z,42.70
2017-11-22T05:20:47.553Z,42.40
2017-11-22T05:23:15.913Z,42.40
2017-11-22T05:25:45.827Z,44.10
2017-11-22T05:28:15.813Z,46.80
2017-11-22T05:30:45.581Z,49.20
2017-11-22T05:33:14.651Z,47.30
2017-11-22T05:35:44.407Z,46.20
2017-11-22T05:38:12.611Z,46.10
2017-11-22T05:40:41.288Z,45.30
2017-11-22T05:43:09.672Z,44.60
2017-11-22T05:45:39.123Z,44.00
2017-11-22T05:48:08.523Z,43.60
2017-11-22T05:50:38.623Z,43.00
2017-11-22T05:53:08.223Z,42.80
2017-11-22T05:55:36.892Z,42.70
2017-11-22T05:58:06.417Z,42.20
2017-11-22T06:00:39.824Z,42.20
2017-11-22T06:03:08.584Z,43.30
2017-11-22T06:05:38.019Z,46.00
2017-11-22T06:08:08.524Z,49.80
2017-11-22T06:10:38.119Z,49.60
2017-11-22T06:13:08.119Z,47.60
2017-11-22T06:15:37.289Z,46.50
2017-11-22T06:18:05.941Z,45.50
2017-11-22T06:20:34.088Z,44.80
2017-11-22T06:23:02.776Z,44.30
2017-11-22T06:25:31.345Z,43.70
2017-11-22T06:28:02.719Z,43.20
2017-11-22T06:30:34.019Z,42.90
2017-11-22T06:33:05.459Z,42.70
2017-11-22T06:35:36.854Z,42.30
2017-11-22T06:38:06.011Z,42.30
2017-11-22T06:40:34.492Z,42.20
2017-11-22T06:43:02.822Z,45.40
2017-11-22T06:45:30.998Z,47.70
2017-11-22T06:47:59.480Z,49.80
2017-11-22T06:50:30.352Z,51.10
2017-11-22T06:53:00.863Z,52.20
2017-11-22T06:55:32.657Z,49.70
2017-11-22T06:58:02.957Z,49.60
2017-11-22T07:00:31.704Z,48.10
2017-11-22T07:05:48.608Z,45.90
2017-11-22T07:08:23.681Z,44.60
2017-11-22T07:10:52.640Z,44.00
2017-11-22T07:13:20.843Z,44.00
2017-11-22T07:15:54.261Z,43.60
2017-11-22T07:18:24.007Z,43.30
2017-11-22T07:32:09.174Z,49.10
2017-11-22T07:37:29.867Z,47.50
2017-11-22T07:42:44.590Z,45.50
2017-11-22T07:45:13.790Z,44.90
2017-11-22T07:47:42.989Z,44.50
2017-11-22T07:50:13.090Z,44.00
2017-11-22T07:52:43.288Z,43.60
2017-11-22T07:55:14.587Z,43.40
2017-11-22T07:57:51.487Z,42.80
2017-11-22T08:00:22.496Z,42.80
2017-11-22T08:02:57.300Z,42.60
2017-11-22T08:05:27.993Z,45.10
2017-11-22T08:07:58.289Z,47.80
2017-11-22T08:10:28.696Z,49.70
2017-11-22T08:12:58.591Z,47.20
2017-11-22T08:15:27.944Z,47.20
2017-11-22T08:17:57.649Z,46.40
2017-11-22T08:20:26.841Z,45.40
2017-11-22T08:23:00.644Z,45.00
2017-11-22T08:25:30.142Z,44.30
2017-11-22T08:28:01.841Z,43.90
2017-11-22T08:30:35.247Z,43.60
2017-11-22T08:33:08.350Z,43.30
2017-11-22T08:35:43.440Z,43.10
2017-11-22T08:38:18.041Z,43.00
2017-11-22T08:40:58.141Z,42.90
2017-11-22T08:43:33.900Z,45.20
2017-11-22T08:46:06.169Z,47.70
2017-11-22T08:48:38.620Z,49.70
2017-11-22T08:51:10.469Z,49.00
2017-11-22T08:53:39.837Z,47.40
2017-11-22T08:56:13.362Z,46.70
2017-11-22T08:58:42.349Z,45.90
2017-11-22T09:01:11.302Z,45.60
2017-11-22T09:03:44.674Z,45.30
2017-11-22T09:06:17.660Z,44.60
2017-11-22T09:08:46.668Z,44.50
2017-11-22T09:11:15.356Z,44.40
2017-11-22T09:13:44.734Z,44.00
2017-11-22T09:16:17.986Z,43.80
2017-11-22T09:18:51.888Z,43.70
2017-11-22T09:21:21.378Z,45.70
2017-11-22T09:23:55.177Z,48.50
2017-11-22T09:26:27.184Z,49.70
2017-11-22T09:34:13.496Z,47.60
2017-11-22T09:36:43.295Z,46.60
2017-11-22T09:39:13.119Z,46.10
2017-11-22T09:41:43.196Z,45.70
2017-11-22T09:44:13.534Z,45.50
2017-11-22T09:46:43.942Z,45.20
2017-11-22T09:49:13.745Z,44.90
2017-11-22T09:54:17.188Z,44.60
2017-11-22T09:56:46.321Z,44.30
2017-11-22T09:59:15.176Z,46.30
2017-11-22T10:01:44.393Z,49.30
2017-11-22T10:04:13.083Z,51.40
2017-11-22T10:06:42.992Z,53.00
2017-11-22T10:09:11.787Z,54.00
2017-11-22T10:11:41.451Z,54.60
2017-11-22T10:14:11.394Z,52.40
2017-11-22T10:16:45.597Z,49.30
2017-11-22T10:21:58.643Z,48.30
2017-11-22T10:24:34.141Z,47.60
2017-11-22T10:27:07.840Z,47.20
2017-11-22T10:29:42.349Z,46.70
2017-11-22T10:32:16.140Z,46.30
2017-11-22T10:34:46.538Z,46.00
2017-11-22T10:37:16.540Z,45.50
2017-11-22T10:39:45.839Z,45.50
2017-11-22T10:42:15.040Z,45.40
2017-11-22T10:44:45.539Z,51.40
2017-11-22T10:47:14.526Z,51.40
2017-11-22T10:49:43.228Z,52.80
2017-11-22T10:52:12.176Z,50.80
2017-11-22T10:54:41.148Z,48.50
2017-11-22T10:57:09.742Z,48.40
2017-11-22T10:59:40.338Z,47.00
2017-11-22T11:02:10.637Z,46.60
2017-11-22T11:04:41.034Z,46.20
2017-11-22T11:07:10.745Z,46.20
2017-11-22T11:09:40.644Z,44.90
2017-11-22T11:12:10.550Z,44.60
2017-11-22T11:14:39.890Z,44.40
2017-11-22T11:17:08.426Z,44.30
2017-11-22T11:19:37.186Z,44.20
2017-11-22T11:22:07.187Z,49.60
2017-11-22T11:24:35.933Z,49.60
2017-11-22T11:27:05.472Z,51.50
2017-11-22T11:29:33.627Z,50.30
2017-11-22T11:32:02.554Z,48.60
2017-11-22T11:34:30.812Z,47.50
2017-11-22T11:36:59.524Z,46.80
2017-11-22T11:39:28.000Z,46.00
2017-11-22T11:41:59.386Z,45.60
2017-11-22T11:44:27.764Z,45.20
2017-11-22T11:46:57.926Z,44.60
2017-11-22T11:49:26.665Z,44.50
2017-11-22T11:51:55.264Z,44.40
2017-11-22T11:54:24.068Z,44.30
2017-11-22T11:56:53.880Z,44.90
2017-11-22T11:59:28.990Z,44.90
2017-11-22T12:02:00.054Z,48.60
2017-11-22T12:04:32.374Z,50.70
2017-11-22T12:07:04.413Z,50.40
2017-11-22T12:09:33.036Z,48.50
2017-11-22T12:12:03.135Z,47.70
2017-11-22T12:14:31.943Z,47.10
2017-11-22T12:17:05.133Z,46.40
2017-11-22T12:19:39.148Z,45.90
2017-11-22T12:22:13.041Z,45.50
2017-11-22T12:24:42.631Z,45.00
2017-11-22T12:27:11.917Z,44.90
2017-11-22T12:32:28.509Z,44.30
2017-11-22T12:35:02.220Z,43.80
2017-11-22T12:40:16.017Z,48.70
2017-11-22T12:42:45.909Z,50.80
2017-11-22T12:45:17.315Z,48.80
2017-11-22T12:47:46.908Z,48.70
2017-11-22T12:50:16.908Z,48.00
2017-11-22T12:52:47.916Z,46.70
2017-11-22T12:55:17.806Z,46.80
2017-11-22T12:57:51.616Z,46.30
2017-11-22T13:00:27.207Z,46.00
2017-11-22T13:02:56.845Z,45.60
2017-11-22T13:05:26.704Z,45.20
2017-11-22T13:07:56.516Z,45.00
2017-11-22T13:10:34.706Z,44.70
2017-11-22T13:13:07.715Z,44.50
2017-11-22T13:15:38.114Z,45.60
2017-11-22T13:18:13.904Z,49.10
2017-11-22T13:20:45.385Z,50.80
2017-11-22T13:23:17.000Z,52.30
2017-11-22T13:25:47.099Z,53.10
2017-11-22T13:28:18.385Z,53.90
2017-11-22T13:30:50.886Z,50.40
2017-11-22T13:33:23.185Z,50.40
2017-11-22T13:35:56.081Z,49.60
2017-11-22T13:38:28.585Z,48.80
2017-11-22T13:41:01.716Z,47.50
2017-11-22T13:43:31.616Z,47.50
2017-11-22T13:46:03.005Z,47.10
2017-11-22T13:48:34.814Z,46.50
2017-11-22T13:51:03.284Z,46.00
2017-11-22T13:53:31.440Z,45.80
2017-11-22T13:56:00.303Z,45.50
2017-11-22T13:58:28.980Z,45.20
2017-11-22T14:00:57.770Z,47.30
2017-11-22T14:03:28.404Z,51.70
2017-11-22T14:05:58.903Z,51.70
2017-11-22T14:08:29.003Z,50.70
2017-11-22T14:11:03.401Z,49.50
2017-11-22T14:16:09.769Z,47.80
2017-11-22T14:24:00.850Z,46.30
2017-11-22T14:26:30.762Z,45.90
2017-11-22T14:29:04.361Z,45.50
2017-11-22T14:31:38.154Z,45.20
2017-11-22T14:34:08.518Z,44.90
2017-11-22T14:36:37.917Z,44.70
2017-11-22T14:39:07.954Z,46.50
2017-11-22T14:41:37.472Z,49.30
2017-11-22T14:44:06.557Z,51.20
2017-11-22T14:46:35.857Z,50.00
2017-11-22T14:49:10.055Z,48.80
2017-11-22T14:54:19.857Z,47.60
2017-11-22T14:56:52.747Z,47.00
2017-11-22T14:59:23.255Z,46.50
2017-11-22T15:02:00.847Z,46.10
2017-11-22T15:04:30.292Z,45.80
2017-11-22T15:06:59.812Z,45.30
2017-11-22T15:09:31.376Z,44.80
2017-11-22T15:12:00.619Z,44.80
2017-11-22T15:14:30.407Z,44.60
2017-11-22T15:16:59.567Z,46.30
2017-11-22T15:19:29.661Z,49.20
2017-11-22T15:21:59.160Z,50.90
2017-11-22T15:24:28.862Z,50.10
2017-11-22T15:27:01.767Z,48.80
2017-11-22T15:29:32.480Z,48.00
2017-11-22T15:32:04.279Z,47.30
2017-11-22T15:37:09.463Z,46.20
2017-11-22T15:39:41.079Z,45.70
2017-11-22T15:42:18.664Z,45.30
2017-11-22T15:44:50.278Z,44.90
2017-11-22T15:47:23.763Z,44.50
2017-11-22T15:49:56.068Z,44.40
2017-11-22T15:52:28.858Z,44.20
2017-11-22T15:55:02.062Z,45.60
2017-11-22T15:57:31.855Z,48.40
2017-11-22T16:00:00.855Z,50.60
2017-11-22T16:02:30.154Z,49.60
2017-11-22T16:05:00.455Z,47.50
2017-11-22T16:07:31.552Z,47.50
2017-11-22T16:10:07.969Z,46.70
2017-11-22T16:12:42.631Z,46.00
2017-11-22T16:15:16.205Z,45.60
2017-11-22T16:17:46.500Z,45.00
2017-11-22T16:20:15.398Z,44.60
2017-11-22T16:22:44.551Z,44.30
2017-11-22T16:25:17.400Z,44.10
2017-11-22T16:27:47.507Z,44.00
2017-11-22T16:30:17.699Z,43.80
2017-11-22T16:32:48.000Z,44.80
2017-11-22T16:35:21.098Z,49.90
2017-11-22T16:37:52.412Z,51.40
2017-11-22T16:40:21.801Z,51.40
2017-11-22T16:42:52.698Z,52.50
2017-11-22T16:45:21.856Z,52.90
2017-11-22T16:47:51.496Z,49.90
2017-11-22T16:50:20.696Z,49.20
2017-11-22T16:52:50.447Z,47.20
2017-11-22T16:55:19.404Z,47.20
2017-11-22T17:00:24.134Z,45.80
2017-11-22T17:02:59.331Z,45.00
2017-11-22T17:05:32.934Z,45.00
2017-11-22T17:08:02.901Z,44.50
2017-11-22T17:10:32.498Z,44.10
2017-11-22T17:13:02.294Z,43.90
2017-11-22T17:15:32.703Z,44.30
2017-11-22T17:18:05.657Z,46.00
2017-11-22T17:25:49.557Z,49.10
2017-11-22T17:30:57.236Z,47.00
2017-11-22T17:33:27.735Z,46.00
2017-11-22T17:35:58.954Z,45.10
2017-11-22T17:41:02.644Z,44.10
2017-11-22T17:46:11.834Z,43.60
2017-11-22T17:48:42.797Z,43.30
2017-11-22T17:51:12.702Z,43.20
2017-11-22T17:53:41.693Z,43.10
2017-11-22T17:56:11.595Z,45.10
2017-11-22T17:58:54.394Z,48.20
2017-11-22T18:01:23.891Z,50.00
2017-11-22T18:03:56.832Z,48.20
2017-11-22T18:06:30.232Z,45.90
2017-11-22T18:14:19.733Z,44.90
2017-11-22T18:16:57.429Z,43.90
2017-11-22T18:19:32.730Z,43.60
2017-11-22T18:24:53.829Z,42.70
2017-11-22T18:27:34.509Z,42.70
2017-11-22T18:30:14.105Z,42.60
2017-11-22T18:35:25.807Z,46.00
2017-11-22T18:40:39.441Z,49.40
2017-11-22T18:45:49.962Z,46.00
2017-11-22T18:48:21.071Z,45.10
2017-11-22T18:50:52.497Z,43.80
2017-11-22T18:53:23.264Z,43.70
2017-11-22T18:55:57.426Z,43.30
2017-11-22T18:58:27.032Z,43.10
2017-11-22T19:03:40.136Z,42.40
2017-11-22T19:06:10.731Z,42.20
2017-11-22T19:08:44.563Z,43.00
2017-11-22T19:11:15.091Z,43.00
2017-11-22T19:13:47.002Z,46.20
2017-11-22T19:16:16.767Z,48.60
2017-11-22T19:18:47.156Z,48.80
2017-11-22T19:21:16.935Z,46.70
2017-11-22T19:23:48.164Z,45.50
2017-11-22T19:26:17.646Z,44.80
2017-11-22T19:28:51.047Z,43.90
2017-11-22T19:31:22.028Z,43.40
2017-11-22T19:34:00.357Z,43.10
2017-11-22T19:36:33.728Z,42.40
2017-11-22T19:39:04.150Z,42.30
2017-11-22T19:41:46.248Z,42.10
2017-11-22T19:44:15.557Z,42.00
2017-11-22T19:46:49.546Z,41.90
2017-11-22T19:49:27.041Z,42.80
2017-11-22T19:51:59.152Z,45.80
2017-11-22T19:54:31.953Z,49.30
2017-11-22T20:02:23.640Z,52.60
2017-11-22T20:04:56.138Z,50.30
2017-11-22T20:10:19.141Z,46.20
2017-11-22T20:12:53.249Z,45.20
2017-11-22T20:15:23.546Z,44.40
2017-11-22T20:17:56.640Z,43.50
2017-11-22T20:20:27.041Z,43.50
2017-11-22T20:22:57.335Z,43.00
2017-11-22T20:25:26.638Z,42.80
2017-11-22T20:27:56.747Z,42.60
2017-11-22T20:30:28.194Z,42.40
2017-11-22T20:35:32.944Z,46.10
2017-11-22T20:38:04.037Z,48.70
2017-11-22T20:40:34.335Z,48.60
2017-11-22T20:43:05.456Z,48.60
2017-11-22T20:45:35.925Z,47.10
2017-11-22T20:48:06.625Z,46.00
2017-11-22T20:50:39.037Z,45.10
2017-11-22T20:53:09.234Z,44.40
2017-11-22T20:55:38.232Z,44.10
2017-11-22T20:58:09.245Z,43.70
2017-11-22T21:00:40.533Z,43.40
2017-11-22T21:03:11.286Z,43.00
2017-11-22T21:05:40.838Z,42.70
2017-11-22T21:08:12.157Z,42.60
2017-11-22T21:10:41.836Z,42.50
2017-11-22T21:13:12.191Z,44.80
2017-11-22T21:15:42.791Z,48.00
2017-11-22T21:18:13.990Z,49.70
2017-11-22T21:20:45.190Z,48.30
2017-11-22T21:23:16.085Z,46.80
2017-11-22T21:25:45.987Z,45.70
2017-11-22T21:28:15.595Z,44.80
2017-11-22T21:30:44.989Z,44.20
2017-11-22T21:33:16.801Z,43.90
2017-11-22T21:35:47.099Z,43.50
2017-11-22T21:38:21.798Z,43.80
2017-11-22T21:40:53.301Z,43.00
2017-11-22T21:43:24.586Z,42.80
2017-11-22T21:45:55.586Z,42.70
2017-11-22T21:48:26.686Z,42.50
2017-11-22T21:50:58.584Z,47.30
2017-11-22T21:53:28.429Z,47.70
2017-11-22T21:55:59.929Z,48.80
2017-11-22T21:58:29.836Z,48.30
2017-11-22T22:00:59.834Z,46.60
2017-11-22T22:03:31.230Z,45.60
2017-11-22T22:06:01.280Z,44.70
2017-11-22T22:08:30.904Z,44.20
2017-11-22T22:11:01.454Z,43.60
2017-11-22T22:13:31.389Z,43.10
2017-11-22T22:16:00.488Z,42.70
2017-11-22T22:18:29.988Z,42.40
2017-11-22T22:20:59.369Z,42.20
2017-11-22T22:23:29.315Z,42.10
2017-11-22T22:25:58.918Z,42.10
2017-11-22T22:28:29.422Z,46.40
2017-11-22T22:30:59.214Z,46.40
2017-11-22T22:33:28.512Z,49.20
2017-11-22T22:35:57.911Z,48.50
2017-11-22T22:38:27.312Z,46.70
2017-11-22T22:40:56.710Z,45.60
2017-11-22T22:43:26.010Z,44.70
2017-11-22T22:45:54.737Z,44.00
2017-11-22T22:48:25.859Z,43.40
2017-11-22T22:50:56.665Z,43.00
2017-11-22T22:53:26.558Z,42.50
2017-11-22T22:55:55.960Z,42.30
2017-11-22T22:58:25.357Z,42.10
2017-11-22T23:00:57.056Z,41.90
2017-11-22T23:03:25.456Z,41.80
2017-11-22T23:05:56.663Z,42.90
2017-11-22T23:08:29.561Z,45.60
2017-11-22T23:11:00.780Z,48.50
2017-11-22T23:13:33.277Z,50.20
2017-11-22T23:16:01.677Z,51.80
2017-11-22T23:18:30.513Z,51.80
2017-11-22T23:20:59.506Z,50.70
2017-11-22T23:23:27.606Z,48.50
2017-11-22T23:25:56.180Z,47.00
2017-11-22T23:28:24.807Z,45.90
2017-11-22T23:30:53.135Z,45.10
2017-11-22T23:33:21.274Z,44.50
2017-11-22T23:35:49.754Z,44.60
2017-11-22T23:38:18.265Z,43.50
2017-11-22T23:40:48.735Z,43.10
2017-11-22T23:43:19.666Z,42.90
2017-11-22T23:45:50.092Z,42.70
2017-11-22T23:48:21.036Z,42.40
2017-11-22T23:50:49.392Z,43.40
2017-11-22T23:53:17.673Z,46.30
2017-11-22T23:55:47.102Z,49.10
2017-11-22T23:58:16.400Z,49.70
